createdAt,value
2022-09-10T00:01:21.844Z,61.05
2022-09-10T00:03:49.605Z,60.68
2022-09-10T00:06:18.179Z,61.03
2022-09-10T00:08:46.608Z,60.80
2022-09-10T00:11:14.828Z,60.33
2022-09-10T00:13:43.210Z,58.74
2022-09-10T00:16:13.997Z,58.66
2022-09-10T00:18:43.150Z,59.71
2022-09-10T00:21:13.004Z,63.47
2022-09-10T00:23:40.528Z,63.99
2022-09-10T00:26:17.390Z,64.52
2022-09-10T00:28:44.848Z,63.71
2022-09-10T00:31:12.962Z,62.65
2022-09-10T00:33:41.253Z,62.15
2022-09-10T00:36:27.678Z,61.19
2022-09-10T00:38:58.999Z,60.68
2022-09-10T00:41:28.552Z,60.77
2022-09-10T00:43:57.546Z,60.68
2022-09-10T00:46:33.406Z,61.05
2022-09-10T00:49:14.099Z,61.32
2022-09-10T00:51:41.842Z,61.57
2022-09-10T00:54:08.956Z,61.61
2022-09-10T00:56:36.549Z,61.95
2022-09-10T00:59:05.382Z,62.20
2022-09-10T01:01:34.781Z,63.05
2022-09-10T01:04:03.750Z,61.75
2022-09-10T01:06:31.082Z,61.26
2022-09-10T01:08:58.960Z,61.52
2022-09-10T01:11:34.095Z,61.42
2022-09-10T01:14:15.822Z,61.37
2022-09-10T01:16:56.404Z,61.60
2022-09-10T01:19:55.700Z,61.80
2022-09-10T01:22:41.675Z,61.77
2022-09-10T01:25:30.914Z,61.44
2022-09-10T01:28:03.596Z,61.77
2022-09-10T01:30:37.345Z,62.31
2022-09-10T01:33:16.328Z,61.68
2022-09-10T01:35:53.506Z,61.54
2022-09-10T01:38:33.508Z,61.65
2022-09-10T01:41:01.130Z,62.18
2022-09-10T01:43:33.816Z,60.91
2022-09-10T01:46:10.372Z,60.07
2022-09-10T01:48:48.995Z,60.08
2022-09-10T01:51:53.617Z,57.87
2022-09-10T01:54:44.961Z,58.09
2022-09-10T01:57:41.065Z,59.22
2022-09-10T02:00:14.091Z,65.00
2022-09-10T02:03:17.621Z,63.91
2022-09-10T02:05:50.442Z,61.64
2022-09-10T02:08:31.179Z,61.13
2022-09-10T02:11:05.629Z,60.85
2022-09-10T02:13:35.869Z,60.66
2022-09-10T02:16:32.318Z,59.87
2022-09-10T02:19:01.402Z,58.60
2022-09-10T02:21:28.187Z,59.04
2022-09-10T02:24:05.416Z,60.37
2022-09-10T02:26:33.577Z,64.83
2022-09-10T02:29:04.220Z,64.96
2022-09-10T02:31:31.717Z,63.78
2022-09-10T02:33:58.929Z,61.80
2022-09-10T02:36:26.993Z,61.45
2022-09-10T02:38:58.036Z,60.89
2022-09-10T02:41:30.164Z,61.09
2022-09-10T02:44:16.098Z,60.66
2022-09-10T02:47:12.126Z,60.68
2022-09-10T02:49:39.639Z,60.68
2022-09-10T02:52:06.499Z,60.55
2022-09-10T02:54:35.630Z,60.83
2022-09-10T02:57:03.086Z,60.11
2022-09-10T02:59:32.145Z,59.58
2022-09-10T03:01:59.531Z,58.54
2022-09-10T03:04:26.381Z,58.94
2022-09-10T03:06:54.807Z,60.33
2022-09-10T03:09:22.523Z,64.31
2022-09-10T03:11:50.899Z,65.60
2022-09-10T03:14:21.734Z,63.69
2022-09-10T03:16:49.498Z,62.75
2022-09-10T03:19:16.238Z,62.70
2022-09-10T03:21:43.100Z,62.00
2022-09-10T03:24:13.381Z,61.59
2022-09-10T03:26:43.687Z,61.40
2022-09-10T03:29:11.390Z,61.28
2022-09-10T03:31:39.347Z,61.67
2022-09-10T03:34:06.333Z,60.56
2022-09-10T03:36:33.148Z,60.84
2022-09-10T03:38:59.964Z,60.88
2022-09-10T03:41:28.165Z,61.04
2022-09-10T03:43:57.775Z,61.25
2022-09-10T03:46:25.631Z,61.43
2022-09-10T03:48:55.372Z,61.28
2022-09-10T03:51:24.043Z,61.09
2022-09-10T03:53:51.448Z,62.05
2022-09-10T03:56:20.192Z,61.68
2022-09-10T03:58:48.611Z,61.39
2022-09-10T04:01:19.148Z,61.53
2022-09-10T04:03:47.369Z,60.60
2022-09-10T04:06:15.704Z,58.65
2022-09-10T04:08:43.931Z,58.86
2022-09-10T04:11:13.848Z,60.06
2022-09-10T04:13:41.163Z,63.67
2022-09-10T04:16:09.325Z,64.45
2022-09-10T04:18:36.415Z,64.11
2022-09-10T04:21:03.901Z,63.60
2022-09-10T04:23:32.351Z,64.09
2022-09-10T04:26:01.236Z,63.18
2022-09-10T04:28:27.970Z,62.24
2022-09-10T04:30:55.121Z,62.16
2022-09-10T04:33:24.437Z,62.49
2022-09-10T04:35:53.519Z,62.08
2022-09-10T04:38:20.476Z,62.35
2022-09-10T04:40:48.749Z,62.20
2022-09-10T04:43:16.454Z,62.20
2022-09-10T04:45:43.720Z,62.17
2022-09-10T04:48:10.707Z,64.26
2022-09-10T04:50:49.976Z,63.10
2022-09-10T04:53:22.178Z,62.54
2022-09-10T04:55:50.893Z,62.46
2022-09-10T04:58:18.357Z,62.82
2022-09-10T05:00:46.379Z,61.98
2022-09-10T05:03:14.296Z,62.08
2022-09-10T05:05:45.646Z,62.84
2022-09-10T05:08:13.812Z,62.67
2022-09-10T05:10:44.960Z,62.62
2022-09-10T05:13:11.910Z,62.59
2022-09-10T05:15:41.061Z,62.74
2022-09-10T05:18:08.244Z,63.24
2022-09-10T05:20:37.246Z,63.39
2022-09-10T05:23:04.604Z,63.26
2022-09-10T05:25:31.557Z,64.21
2022-09-10T05:28:00.665Z,64.22
2022-09-10T05:30:32.202Z,62.96
2022-09-10T05:33:00.808Z,61.68
2022-09-10T05:35:29.776Z,60.61
2022-09-10T05:37:57.019Z,60.27
2022-09-10T05:40:26.058Z,59.54
2022-09-10T05:42:56.044Z,58.34
2022-09-10T05:45:24.521Z,58.86
2022-09-10T05:47:54.040Z,60.26
2022-09-10T05:50:24.081Z,64.06
2022-09-10T05:52:53.038Z,65.28
2022-09-10T05:55:20.589Z,63.32
2022-09-10T05:57:48.764Z,63.58
2022-09-10T06:00:18.170Z,63.84
2022-09-10T06:02:50.645Z,63.28
2022-09-10T06:05:40.874Z,62.71
2022-09-10T06:08:08.896Z,62.68
2022-09-10T06:10:38.859Z,61.87
2022-09-10T06:13:06.416Z,61.43
2022-09-10T06:15:35.816Z,62.29
2022-09-10T06:18:03.927Z,63.15
2022-09-10T06:20:31.865Z,63.64
2022-09-10T06:22:59.924Z,63.61
2022-09-10T06:25:27.908Z,62.24
2022-09-10T06:27:56.067Z,61.36
2022-09-10T06:30:23.133Z,61.07
2022-09-10T06:32:50.684Z,61.43
2022-09-10T06:35:18.131Z,60.90
2022-09-10T06:37:45.203Z,61.69
2022-09-10T06:40:14.187Z,61.40
2022-09-10T06:42:42.449Z,61.24
2022-09-10T06:45:15.026Z,60.91
2022-09-10T06:51:04.222Z,61.81
2022-09-10T06:53:37.168Z,61.67
2022-09-10T06:56:08.511Z,60.24
2022-09-10T06:58:38.171Z,60.25
2022-09-10T07:01:13.015Z,57.99
2022-09-10T07:03:43.211Z,58.31
2022-09-10T07:06:13.028Z,61.16
2022-09-10T07:08:42.430Z,63.20
2022-09-10T07:11:14.371Z,63.07
2022-09-10T07:13:45.846Z,60.00
2022-09-10T07:16:19.423Z,60.62
2022-09-10T07:18:49.688Z,62.08
2022-09-10T07:21:19.550Z,62.53
2022-09-10T07:23:49.753Z,60.38
2022-09-10T07:26:22.997Z,58.97
2022-09-10T07:29:32.571Z,59.34
2022-09-10T07:32:04.295Z,61.61
2022-09-10T07:34:37.569Z,62.58
2022-09-10T07:37:08.055Z,61.97
2022-09-10T07:39:36.889Z,59.45
2022-09-10T07:42:15.107Z,58.75
2022-09-10T07:44:47.503Z,60.70
2022-09-10T07:47:15.701Z,61.77
2022-09-10T07:49:45.819Z,62.46
2022-09-10T07:52:14.490Z,61.71
2022-09-10T07:54:50.148Z,58.74
2022-09-10T07:57:17.837Z,57.81
2022-09-10T07:59:44.943Z,59.12
2022-09-10T08:02:16.032Z,60.19
2022-09-10T08:04:46.467Z,61.41
2022-09-10T08:07:17.030Z,61.79
2022-09-10T08:09:43.876Z,62.61
2022-09-10T08:12:15.845Z,61.88
2022-09-10T08:14:43.185Z,58.42
2022-09-10T08:17:10.520Z,58.36
2022-09-10T08:19:41.012Z,59.93
2022-09-10T08:22:12.796Z,61.24
2022-09-10T08:24:44.197Z,62.42
2022-09-10T08:27:11.750Z,62.27
2022-09-10T08:29:39.067Z,59.45
2022-09-10T08:32:07.582Z,57.73
2022-09-10T08:34:34.897Z,58.19
2022-09-10T08:37:08.127Z,59.76
2022-09-10T08:39:36.149Z,60.92
2022-09-10T08:42:23.988Z,61.32
2022-09-10T08:44:57.652Z,61.93
2022-09-10T08:48:03.721Z,62.12
2022-09-10T08:51:00.049Z,62.35
2022-09-10T08:53:44.329Z,62.51
2022-09-10T08:56:19.829Z,59.63
2022-09-10T08:58:58.553Z,57.63
2022-09-10T09:01:50.253Z,58.40
2022-09-10T09:04:39.855Z,59.28
2022-09-10T09:07:16.611Z,59.92
2022-09-10T09:09:51.208Z,60.46
2022-09-10T09:12:48.106Z,60.82
2022-09-10T09:15:21.704Z,61.72
2022-09-10T09:18:15.233Z,61.55
2022-09-10T09:20:46.628Z,60.61
2022-09-10T09:24:11.757Z,61.12
2022-09-10T09:26:38.069Z,61.24
2022-09-10T09:29:35.012Z,60.34
2022-09-10T09:32:05.378Z,60.29
2022-09-10T09:34:38.587Z,60.39
2022-09-10T09:37:17.052Z,60.35
2022-09-10T09:39:52.432Z,59.70
2022-09-10T09:42:20.726Z,59.99
2022-09-10T09:44:57.638Z,60.30
2022-09-10T09:47:25.528Z,60.59
2022-09-10T09:49:53.584Z,60.24
2022-09-10T09:52:23.820Z,60.47
2022-09-10T09:55:14.335Z,60.27
2022-09-10T09:57:42.375Z,60.28
2022-09-10T10:00:33.192Z,60.26
2022-09-10T10:03:17.669Z,59.73
2022-09-10T10:05:46.615Z,59.81
2022-09-10T10:08:59.965Z,60.07
2022-09-10T10:11:41.838Z,60.16
2022-09-10T10:14:13.970Z,60.60
2022-09-10T10:16:41.805Z,60.79
2022-09-10T10:19:39.679Z,60.27
2022-09-10T10:22:20.203Z,60.46
2022-09-10T10:24:51.457Z,60.56
2022-09-10T10:27:36.049Z,60.53
2022-09-10T10:30:16.785Z,60.21
2022-09-10T10:33:04.019Z,59.47
2022-09-10T10:35:58.410Z,58.96
2022-09-10T10:38:35.783Z,59.22
2022-09-10T10:41:09.088Z,59.11
2022-09-10T10:43:55.300Z,59.57
2022-09-10T10:46:46.130Z,59.52
2022-09-10T10:49:28.502Z,59.48
2022-09-10T10:52:04.659Z,59.35
2022-09-10T10:54:51.935Z,59.54
2022-09-10T10:57:30.226Z,59.08
2022-09-10T11:00:10.429Z,59.48
2022-09-10T11:02:55.719Z,59.01
2022-09-10T11:05:42.475Z,57.96
2022-09-10T11:08:20.180Z,58.32
2022-09-10T11:10:56.413Z,58.57
2022-09-10T11:13:59.394Z,57.93
2022-09-10T11:16:41.403Z,58.48
2022-09-10T11:19:36.227Z,58.04
2022-09-10T11:22:18.817Z,56.95
2022-09-10T11:24:53.522Z,56.47
2022-09-10T11:27:29.208Z,55.65
2022-09-10T11:30:11.725Z,55.97
2022-09-10T11:32:44.518Z,55.56
2022-09-10T11:35:32.649Z,54.77
2022-09-10T11:38:04.324Z,55.09
2022-09-10T11:40:47.576Z,55.26
2022-09-10T11:43:29.033Z,55.80
2022-09-10T11:46:05.118Z,54.88
2022-09-10T11:49:11.272Z,53.51
2022-09-10T11:51:52.828Z,53.06
2022-09-10T11:54:34.350Z,53.29
2022-09-10T11:57:28.532Z,53.36
2022-09-10T11:59:58.650Z,54.11
2022-09-10T12:02:34.407Z,52.99
2022-09-10T12:05:20.089Z,52.96
2022-09-10T12:08:17.081Z,53.27
2022-09-10T12:11:04.286Z,53.74
2022-09-10T12:13:35.420Z,53.77
2022-09-10T12:16:18.690Z,53.53
2022-09-10T12:18:52.357Z,54.10
2022-09-10T12:21:32.512Z,54.51
2022-09-10T12:24:03.161Z,54.97
2022-09-10T12:26:48.830Z,55.41
2022-09-10T12:29:32.695Z,56.11
2022-09-10T12:32:09.277Z,56.28
2022-09-10T12:34:37.258Z,56.79
2022-09-10T12:37:04.177Z,56.94
2022-09-10T12:39:31.742Z,56.83
2022-09-10T12:42:22.402Z,56.71
2022-09-10T12:44:49.524Z,56.13
2022-09-10T12:47:17.326Z,56.00
2022-09-10T12:49:56.226Z,56.03
2022-09-10T12:52:47.329Z,56.26
2022-09-10T12:55:28.500Z,56.69
2022-09-10T12:58:31.852Z,56.78
2022-09-10T13:01:11.392Z,56.99
2022-09-10T13:03:51.295Z,57.49
2022-09-10T13:06:18.867Z,57.88
2022-09-10T13:08:49.961Z,58.23
2022-09-10T13:11:23.760Z,58.47
2022-09-10T13:14:02.537Z,58.19
2022-09-10T13:16:29.390Z,58.03
2022-09-10T13:19:17.015Z,58.09
2022-09-10T13:21:43.962Z,57.81
2022-09-10T13:24:35.800Z,57.77
2022-09-10T13:27:35.732Z,57.71
2022-09-10T13:30:19.906Z,57.78
2022-09-10T13:32:53.075Z,57.87
2022-09-10T13:35:55.005Z,57.75
2022-09-10T13:39:03.168Z,58.00
2022-09-10T13:41:49.681Z,57.64
2022-09-10T13:44:45.885Z,57.86
2022-09-10T13:47:20.937Z,57.60
2022-09-10T13:50:11.866Z,57.98
2022-09-10T13:52:43.007Z,58.08
2022-09-10T13:55:23.575Z,57.69
2022-09-10T13:57:54.709Z,57.56
2022-09-10T14:00:29.263Z,57.58
2022-09-10T14:03:01.381Z,57.84
2022-09-10T14:05:44.356Z,57.27
2022-09-10T14:08:23.271Z,57.21
2022-09-10T14:11:07.124Z,57.37
2022-09-10T14:13:46.975Z,57.15
2022-09-10T14:16:30.223Z,57.27
2022-09-10T14:19:04.032Z,57.06
2022-09-10T14:21:34.212Z,56.61
2022-09-10T14:24:02.093Z,56.23
2022-09-10T14:26:34.199Z,55.17
2022-09-10T14:29:24.244Z,55.49
2022-09-10T14:31:52.014Z,55.96
2022-09-10T14:34:31.768Z,56.14
2022-09-10T14:37:33.944Z,56.19
2022-09-10T14:40:05.235Z,56.35
2022-09-10T14:42:35.614Z,56.31
2022-09-10T14:45:07.083Z,56.36
2022-09-10T14:47:38.284Z,56.34
2022-09-10T14:50:30.776Z,55.65
2022-09-10T14:53:00.137Z,55.81
2022-09-10T14:55:31.645Z,55.46
2022-09-10T14:58:00.710Z,55.87
2022-09-10T15:00:33.431Z,56.31
2022-09-10T15:03:03.940Z,56.64
2022-09-10T15:05:33.272Z,56.89
2022-09-10T15:08:03.995Z,57.26
2022-09-10T15:10:32.041Z,57.44
2022-09-10T15:13:00.341Z,57.62
2022-09-10T15:15:29.228Z,57.74
2022-09-10T15:17:57.010Z,58.12
2022-09-10T16:31:27.140Z,61.53
2022-09-10T16:33:58.191Z,62.39
2022-09-10T16:36:28.243Z,59.17
2022-09-10T16:38:57.274Z,57.57
2022-09-10T16:41:25.669Z,58.26
2022-09-10T16:43:53.153Z,59.37
2022-09-10T16:46:20.723Z,60.26
2022-09-10T16:48:52.505Z,60.88
2022-09-10T16:51:23.100Z,61.11
2022-09-10T16:53:57.650Z,61.49
2022-09-10T16:56:25.304Z,62.63
2022-09-10T16:58:52.816Z,64.12
2022-09-10T17:01:21.498Z,64.35
2022-09-10T17:03:50.646Z,60.15
2022-09-10T17:06:23.805Z,58.17
2022-09-10T17:08:53.260Z,58.25
2022-09-10T17:11:22.278Z,58.88
2022-09-10T17:13:50.396Z,60.06
2022-09-10T17:16:25.463Z,63.07
2022-09-10T17:19:01.205Z,62.66
2022-09-10T17:21:34.040Z,57.81
2022-09-10T17:24:03.171Z,57.54
2022-09-10T17:26:32.685Z,58.44
2022-09-10T17:29:03.952Z,59.84
2022-09-10T17:31:34.278Z,60.19
2022-09-10T17:34:03.183Z,64.50
2022-09-10T17:36:32.617Z,65.91
2022-09-10T17:39:00.461Z,63.95
2022-09-10T17:41:29.365Z,60.72
2022-09-10T17:43:58.886Z,58.28
2022-09-10T17:46:26.807Z,59.10
2022-09-10T17:48:54.112Z,60.61
2022-09-10T17:51:23.914Z,64.40
2022-09-10T17:53:54.825Z,65.81
2022-09-10T17:56:25.286Z,64.35
2022-09-10T17:59:01.472Z,61.61
2022-09-10T18:01:36.340Z,58.56
2022-09-10T18:04:06.384Z,57.66
2022-09-10T18:06:37.675Z,58.56
2022-09-10T18:09:05.912Z,59.45
2022-09-10T18:11:36.149Z,60.68
2022-09-10T18:14:04.460Z,64.04
2022-09-10T18:16:34.194Z,65.08
2022-09-10T18:19:12.952Z,63.48
2022-09-10T18:21:43.821Z,61.69
2022-09-10T18:24:15.721Z,60.92
2022-09-10T18:26:48.352Z,60.21
2022-09-10T18:29:18.336Z,57.77
2022-09-10T18:31:49.997Z,57.13
2022-09-10T18:34:23.258Z,58.05
2022-09-10T18:36:55.489Z,59.36
2022-09-10T18:39:25.319Z,63.08
2022-09-10T18:41:55.277Z,65.30
2022-09-10T18:44:27.527Z,60.78
2022-09-10T18:46:55.488Z,59.58
2022-09-10T18:49:24.948Z,61.11
2022-09-10T18:51:54.605Z,63.34
2022-09-10T18:54:24.097Z,63.93
2022-09-10T18:56:53.874Z,63.16
2022-09-10T18:59:24.256Z,62.81
2022-09-10T19:01:53.476Z,62.97
2022-09-10T19:04:24.136Z,63.25
2022-09-10T19:06:52.898Z,64.57
2022-09-10T19:09:28.649Z,63.03
2022-09-10T19:11:58.386Z,61.29
2022-09-10T19:14:32.353Z,62.23
2022-09-10T19:17:00.881Z,61.36
2022-09-10T19:19:31.479Z,60.28
2022-09-10T19:22:06.564Z,58.26
2022-09-10T19:27:47.964Z,59.19
2022-09-10T19:30:16.158Z,64.02
2022-09-10T19:32:43.413Z,64.75
2022-09-10T19:35:12.312Z,63.29
2022-09-10T19:37:42.699Z,60.82
2022-09-10T19:40:11.501Z,58.17
2022-09-10T19:42:39.061Z,57.65
2022-09-10T19:45:10.209Z,59.42
2022-09-10T19:47:38.156Z,63.15
2022-09-10T19:50:05.808Z,64.39
2022-09-10T19:52:36.847Z,62.85
2022-09-10T19:55:10.689Z,62.31
2022-09-10T19:57:42.984Z,62.20
2022-09-10T20:00:36.055Z,62.32
2022-09-10T20:03:08.129Z,61.04
2022-09-10T20:05:38.346Z,58.67
2022-09-10T20:08:09.497Z,58.31
2022-09-10T20:10:39.958Z,59.57
2022-09-10T20:13:09.988Z,60.49
2022-09-10T20:15:43.529Z,63.78
2022-09-10T20:18:14.666Z,65.40
2022-09-10T20:20:43.204Z,65.12
2022-09-10T20:23:11.516Z,60.95
2022-09-10T20:25:42.987Z,57.60
2022-09-10T20:28:21.608Z,56.91
2022-09-10T20:30:53.082Z,58.25
2022-09-10T20:33:22.773Z,63.73
2022-09-10T20:35:51.319Z,66.22
2022-09-10T20:38:20.459Z,63.61
2022-09-10T20:40:48.402Z,61.07
2022-09-10T20:43:16.401Z,60.70
2022-09-10T20:45:44.061Z,57.69
2022-09-10T20:48:11.672Z,57.66
2022-09-10T20:50:39.359Z,58.39
2022-09-10T20:53:08.149Z,61.32
2022-09-10T20:55:36.250Z,63.80
2022-09-10T20:58:04.632Z,63.02
2022-09-10T21:00:33.513Z,61.41
2022-09-10T21:03:03.397Z,59.43
2022-09-10T21:05:31.218Z,59.10
2022-09-10T21:08:02.129Z,59.47
2022-09-10T21:10:35.080Z,63.49
2022-09-10T21:13:05.274Z,64.25
2022-09-10T21:15:33.404Z,62.25
2022-09-10T21:18:00.705Z,60.04
2022-09-10T21:20:28.067Z,58.73
2022-09-10T21:22:55.797Z,60.35
2022-09-10T21:25:25.869Z,63.72
2022-09-10T21:27:53.410Z,64.07
2022-09-10T21:30:20.795Z,62.90
2022-09-10T21:32:48.175Z,63.08
2022-09-10T21:35:15.851Z,61.68
2022-09-10T21:37:43.830Z,61.37
2022-09-10T21:40:11.329Z,60.50
2022-09-10T21:42:39.062Z,58.15
2022-09-10T21:45:06.754Z,57.67
2022-09-10T21:47:34.937Z,58.28
2022-09-10T21:50:03.830Z,60.24
2022-09-10T21:52:30.977Z,62.44
2022-09-10T21:54:58.995Z,64.65
2022-09-10T21:57:27.078Z,66.57
2022-09-10T21:59:54.787Z,66.16
2022-09-10T22:02:23.681Z,63.54
2022-09-10T22:04:50.616Z,62.22
2022-09-10T22:07:17.589Z,61.17
2022-09-10T22:09:45.118Z,59.88
2022-09-10T22:12:11.883Z,57.46
2022-09-10T22:14:39.204Z,58.10
2022-09-10T22:17:05.905Z,59.92
2022-09-10T22:19:32.728Z,63.54
2022-09-10T22:21:59.470Z,65.23
2022-09-10T22:24:26.274Z,63.39
2022-09-10T22:26:53.932Z,62.29
2022-09-10T22:29:20.822Z,61.15
2022-09-10T22:31:48.507Z,59.76
2022-09-10T22:34:17.232Z,57.32
2022-09-10T22:36:46.099Z,57.05
2022-09-10T22:39:18.720Z,57.93
2022-09-10T22:41:47.187Z,59.87
2022-09-10T22:44:14.414Z,65.12
2022-09-10T22:46:42.085Z,66.02
2022-09-10T22:49:10.115Z,64.40
2022-09-10T22:51:40.429Z,62.66
2022-09-10T22:54:08.392Z,60.90
2022-09-10T22:56:35.337Z,59.71
2022-09-10T22:59:03.492Z,58.28
2022-09-10T23:01:34.869Z,58.42
2022-09-10T23:04:04.338Z,59.33
2022-09-10T23:06:33.836Z,63.44
2022-09-10T23:09:07.726Z,64.72
2022-09-10T23:11:36.334Z,64.02
2022-09-10T23:14:06.532Z,62.65
2022-09-10T23:16:39.275Z,61.26
2022-09-10T23:19:10.819Z,60.67
2022-09-10T23:21:42.021Z,60.71
2022-09-10T23:24:12.485Z,61.10
2022-09-10T23:26:39.927Z,61.19
2022-09-10T23:29:07.461Z,61.12
2022-09-10T23:31:36.322Z,61.19
2022-09-10T23:34:22.184Z,61.10
2022-09-10T23:36:49.699Z,61.66
2022-09-10T23:39:21.597Z,61.51
2022-09-10T23:41:50.141Z,61.72
2022-09-10T23:44:17.462Z,62.18
2022-09-10T23:46:44.769Z,61.88
2022-09-10T23:49:12.336Z,61.85
2022-09-10T23:51:40.183Z,61.99
2022-09-10T23:54:08.185Z,62.92
2022-09-10T23:56:34.884Z,63.37
2022-09-10T23:59:02.907Z,63.34
